sensor_id;sensor_type;location;lat;lon;timestamp;P1;durP1;ratioP1;P2;durP2;ratioP2
9716;SDS011;4897;43.570;27.832;2024-01-27T00:00:22;38.20;;;34.47;;
9716;SDS011;4897;43.570;27.832;2024-01-27T00:02:49;38.20;;;34.38;;
9716;SDS011;4897;43.570;27.832;2024-01-27T00:05:16;39.90;;;36.30;;
9716;SDS011;4897;43.570;27.832;2024-01-27T00:07:43;37.22;;;33.53;;
9716;SDS011;4897;43.570;27.832;2024-01-27T00:10:12;35.78;;;32.67;;
9716;SDS011;4897;43.570;27.832;2024-01-27T00:12:39;36.83;;;33.53;;
9716;SDS011;4897;43.570;27.832;2024-01-27T00:15:07;35.60;;;32.63;;
9716;SDS011;4897;43.570;27.832;2024-01-27T00:17:34;35.20;;;32.20;;
9716;SDS011;4897;43.570;27.832;2024-01-27T00:20:01;33.65;;;30.90;;
9716;SDS011;4897;43.570;27.832;2024-01-27T00:22:28;32.92;;;30.05;;
9716;SDS011;4897;43.570;27.832;2024-01-27T00:24:57;31.05;;;28.38;;
9716;SDS011;4897;43.570;27.832;2024-01-27T00:27:25;30.52;;;27.73;;
9716;SDS011;4897;43.570;27.832;2024-01-27T00:29:52;29.35;;;27.00;;
9716;SDS011;4897;43.570;27.832;2024-01-27T00:32:18;27.42;;;25.33;;
9716;SDS011;4897;43.570;27.832;2024-01-27T00:34:45;23.15;;;21.02;;
9716;SDS011;4897;43.570;27.832;2024-01-27T00:37:12;23.75;;;21.75;;
9716;SDS011;4897;43.570;27.832;2024-01-27T00:39:39;26.35;;;24.13;;
9716;SDS011;4897;43.570;27.832;2024-01-27T00:42:06;25.02;;;22.85;;
9716;SDS011;4897;43.570;27.832;2024-01-27T00:44:35;27.60;;;25.20;;
9716;SDS011;4897;43.570;27.832;2024-01-27T00:47:02;28.10;;;25.80;;
9716;SDS011;4897;43.570;27.832;2024-01-27T00:49:29;28.27;;;25.90;;
9716;SDS011;4897;43.570;27.832;2024-01-27T00:51:56;30.20;;;27.80;;
9716;SDS011;4897;43.570;27.832;2024-01-27T00:54:23;30.90;;;28.15;;
9716;SDS011;4897;43.570;27.832;2024-01-27T00:56:51;29.85;;;27.35;;
9716;SDS011;4897;43.570;27.832;2024-01-27T00:59:20;28.17;;;25.88;;
9716;SDS011;4897;43.570;27.832;2024-01-27T01:01:49;26.35;;;24.27;;
9716;SDS011;4897;43.570;27.832;2024-01-27T01:04:16;28.30;;;25.80;;
9716;SDS011;4897;43.570;27.832;2024-01-27T01:06:43;25.80;;;23.60;;
9716;SDS011;4897;43.570;27.832;2024-01-27T01:09:10;27.75;;;25.63;;
9716;SDS011;4897;43.570;27.832;2024-01-27T01:11:37;29.92;;;27.52;;
9716;SDS011;4897;43.570;27.832;2024-01-27T01:14:04;28.52;;;26.02;;
9716;SDS011;4897;43.570;27.832;2024-01-27T01:16:31;28.42;;;26.08;;
9716;SDS011;4897;43.570;27.832;2024-01-27T01:18:59;26.25;;;24.05;;
9716;SDS011;4897;43.570;27.832;2024-01-27T01:21:26;29.10;;;26.70;;
9716;SDS011;4897;43.570;27.832;2024-01-27T01:23:56;24.48;;;22.58;;
9716;SDS011;4897;43.570;27.832;2024-01-27T01:26:25;28.33;;;26.05;;
9716;SDS011;4897;43.570;27.832;2024-01-27T01:28:55;27.33;;;25.13;;
9716;SDS011;4897;43.570;27.832;2024-01-27T01:31:22;23.45;;;21.52;;
9716;SDS011;4897;43.570;27.832;2024-01-27T01:33:49;27.75;;;25.52;;
9716;SDS011;4897;43.570;27.832;2024-01-27T01:36:17;30.83;;;28.30;;
9716;SDS011;4897;43.570;27.832;2024-01-27T01:38:44;29.90;;;27.50;;
9716;SDS011;4897;43.570;27.832;2024-01-27T01:41:11;30.92;;;28.52;;
9716;SDS011;4897;43.570;27.832;2024-01-27T01:43:38;28.45;;;26.15;;
9716;SDS011;4897;43.570;27.832;2024-01-27T01:46:05;27.15;;;24.85;;
9716;SDS011;4897;43.570;27.832;2024-01-27T01:48:32;26.33;;;24.00;;
9716;SDS011;4897;43.570;27.832;2024-01-27T01:50:59;25.73;;;23.55;;
9716;SDS011;4897;43.570;27.832;2024-01-27T01:53:28;26.05;;;23.85;;
9716;SDS011;4897;43.570;27.832;2024-01-27T01:55:55;20.58;;;18.73;;
9716;SDS011;4897;43.570;27.832;2024-01-27T01:58:22;17.08;;;15.45;;
9716;SDS011;4897;43.570;27.832;2024-01-27T02:00:49;19.83;;;17.67;;
9716;SDS011;4897;43.570;27.832;2024-01-27T02:03:16;29.42;;;26.98;;
9716;SDS011;4897;43.570;27.832;2024-01-27T02:05:42;19.10;;;17.48;;
9716;SDS011;4897;43.570;27.832;2024-01-27T02:08:09;15.52;;;14.00;;
9716;SDS011;4897;43.570;27.832;2024-01-27T02:10:37;22.90;;;21.00;;
9716;SDS011;4897;43.570;27.832;2024-01-27T02:13:14;31.60;;;28.90;;
9716;SDS011;4897;43.570;27.832;2024-01-27T02:15:43;30.40;;;27.80;;
9716;SDS011;4897;43.570;27.832;2024-01-27T02:18:10;32.08;;;29.17;;
9716;SDS011;4897;43.570;27.832;2024-01-27T02:20:37;31.50;;;28.73;;
9716;SDS011;4897;43.570;27.832;2024-01-27T02:23:04;34.45;;;31.48;;
9716;SDS011;4897;43.570;27.832;2024-01-27T02:25:35;34.63;;;31.63;;
9716;SDS011;4897;43.570;27.832;2024-01-27T02:28:03;28.83;;;26.42;;
9716;SDS011;4897;43.570;27.832;2024-01-27T02:30:30;32.78;;;29.73;;
9716;SDS011;4897;43.570;27.832;2024-01-27T02:32:57;34.13;;;31.25;;
9716;SDS011;4897;43.570;27.832;2024-01-27T02:35:27;33.63;;;30.63;;
9716;SDS011;4897;43.570;27.832;2024-01-27T02:37:56;30.55;;;28.00;;
9716;SDS011;4897;43.570;27.832;2024-01-27T02:40:23;29.38;;;26.63;;
9716;SDS011;4897;43.570;27.832;2024-01-27T02:42:52;30.77;;;27.65;;
9716;SDS011;4897;43.570;27.832;2024-01-27T02:45:18;27.83;;;25.08;;
9716;SDS011;4897;43.570;27.832;2024-01-27T02:47:45;26.77;;;24.27;;
9716;SDS011;4897;43.570;27.832;2024-01-27T02:50:12;28.08;;;25.42;;
9716;SDS011;4897;43.570;27.832;2024-01-27T02:52:42;29.85;;;26.92;;
9716;SDS011;4897;43.570;27.832;2024-01-27T02:55:09;29.17;;;26.27;;
9716;SDS011;4897;43.570;27.832;2024-01-27T02:57:35;33.10;;;30.05;;
9716;SDS011;4897;43.570;27.832;2024-01-27T03:00:04;34.83;;;31.45;;
9716;SDS011;4897;43.570;27.832;2024-01-27T03:02:31;35.15;;;32.03;;
9716;SDS011;4897;43.570;27.832;2024-01-27T03:05:01;35.03;;;31.45;;
9716;SDS011;4897;43.570;27.832;2024-01-27T03:07:29;33.75;;;30.63;;
9716;SDS011;4897;43.570;27.832;2024-01-27T03:09:58;32.75;;;29.67;;
9716;SDS011;4897;43.570;27.832;2024-01-27T03:12:28;27.42;;;24.83;;
9716;SDS011;4897;43.570;27.832;2024-01-27T03:14:55;31.17;;;28.17;;
9716;SDS011;4897;43.570;27.832;2024-01-27T03:17:23;31.08;;;28.15;;
9716;SDS011;4897;43.570;27.832;2024-01-27T03:19:50;31.92;;;28.80;;
9716;SDS011;4897;43.570;27.832;2024-01-27T03:22:17;34.08;;;30.88;;
9716;SDS011;4897;43.570;27.832;2024-01-27T03:24:44;31.13;;;28.15;;
9716;SDS011;4897;43.570;27.832;2024-01-27T03:27:11;34.38;;;31.13;;
9716;SDS011;4897;43.570;27.832;2024-01-27T03:29:38;32.92;;;29.83;;
9716;SDS011;4897;43.570;27.832;2024-01-27T03:32:05;34.15;;;30.88;;
9716;SDS011;4897;43.570;27.832;2024-01-27T03:34:33;37.00;;;33.50;;
9716;SDS011;4897;43.570;27.832;2024-01-27T03:37:00;35.88;;;32.28;;
9716;SDS011;4897;43.570;27.832;2024-01-27T03:39:27;37.25;;;34.00;;
9716;SDS011;4897;43.570;27.832;2024-01-27T03:41:54;35.13;;;31.38;;
9716;SDS011;4897;43.570;27.832;2024-01-27T03:44:21;33.70;;;30.67;;
9716;SDS011;4897;43.570;27.832;2024-01-27T03:46:48;36.92;;;33.42;;
9716;SDS011;4897;43.570;27.832;2024-01-27T03:49:16;38.03;;;34.33;;
9716;SDS011;4897;43.570;27.832;2024-01-27T03:51:44;40.58;;;36.60;;
9716;SDS011;4897;43.570;27.832;2024-01-27T03:54:11;39.65;;;35.80;;
9716;SDS011;4897;43.570;27.832;2024-01-27T03:56:39;40.60;;;36.60;;
9716;SDS011;4897;43.570;27.832;2024-01-27T03:59:07;21.58;;;17.83;;
9716;SDS011;4897;43.570;27.832;2024-01-27T04:01:34;25.80;;;23.13;;
9716;SDS011;4897;43.570;27.832;2024-01-27T04:04:01;33.33;;;30.02;;
9716;SDS011;4897;43.570;27.832;2024-01-27T04:06:28;32.53;;;29.42;;
9716;SDS011;4897;43.570;27.832;2024-01-27T04:08:56;23.85;;;21.38;;
9716;SDS011;4897;43.570;27.832;2024-01-27T04:11:23;20.27;;;16.20;;
9716;SDS011;4897;43.570;27.832;2024-01-27T04:13:50;18.67;;;16.77;;
9716;SDS011;4897;43.570;27.832;2024-01-27T04:16:17;21.63;;;19.33;;
9716;SDS011;4897;43.570;27.832;2024-01-27T04:18:44;34.85;;;31.38;;
9716;SDS011;4897;43.570;27.832;2024-01-27T04:21:11;35.15;;;31.80;;
9716;SDS011;4897;43.570;27.832;2024-01-27T04:23:37;37.72;;;34.08;;
9716;SDS011;4897;43.570;27.832;2024-01-27T04:26:09;41.60;;;37.42;;
9716;SDS011;4897;43.570;27.832;2024-01-27T04:28:38;39.15;;;35.15;;
9716;SDS011;4897;43.570;27.832;2024-01-27T04:31:05;35.80;;;32.30;;
9716;SDS011;4897;43.570;27.832;2024-01-27T04:33:32;43.33;;;38.65;;
9716;SDS011;4897;43.570;27.832;2024-01-27T04:35:59;37.95;;;34.35;;
9716;SDS011;4897;43.570;27.832;2024-01-27T04:38:26;32.70;;;29.25;;
9716;SDS011;4897;43.570;27.832;2024-01-27T04:40:53;24.73;;;22.30;;
9716;SDS011;4897;43.570;27.832;2024-01-27T04:43:21;25.92;;;23.35;;
9716;SDS011;4897;43.570;27.832;2024-01-27T04:45:48;23.60;;;21.33;;
9716;SDS011;4897;43.570;27.832;2024-01-27T04:48:15;25.38;;;22.88;;
9716;SDS011;4897;43.570;27.832;2024-01-27T04:50:42;21.33;;;19.05;;
9716;SDS011;4897;43.570;27.832;2024-01-27T04:53:09;21.60;;;19.30;;
9716;SDS011;4897;43.570;27.832;2024-01-27T04:55:36;20.38;;;18.27;;
9716;SDS011;4897;43.570;27.832;2024-01-27T04:58:03;22.92;;;20.70;;
9716;SDS011;4897;43.570;27.832;2024-01-27T05:00:32;22.25;;;20.10;;
9716;SDS011;4897;43.570;27.832;2024-01-27T05:02:57;26.50;;;22.75;;
9716;SDS011;4897;43.570;27.832;2024-01-27T05:05:28;23.55;;;21.10;;
9716;SDS011;4897;43.570;27.832;2024-01-27T05:07:55;26.88;;;24.17;;
9716;SDS011;4897;43.570;27.832;2024-01-27T05:10:22;25.98;;;23.38;;
9716;SDS011;4897;43.570;27.832;2024-01-27T05:12:50;31.15;;;25.17;;
9716;SDS011;4897;43.570;27.832;2024-01-27T05:15:17;32.00;;;26.55;;
9716;SDS011;4897;43.570;27.832;2024-01-27T05:17:45;24.77;;;22.08;;
9716;SDS011;4897;43.570;27.832;2024-01-27T05:20:12;26.45;;;23.90;;
9716;SDS011;4897;43.570;27.832;2024-01-27T05:22:39;29.13;;;25.15;;
9716;SDS011;4897;43.570;27.832;2024-01-27T05:25:07;24.20;;;21.20;;
9716;SDS011;4897;43.570;27.832;2024-01-27T05:27:36;27.15;;;22.83;;
9716;SDS011;4897;43.570;27.832;2024-01-27T05:30:04;24.98;;;22.58;;
9716;SDS011;4897;43.570;27.832;2024-01-27T05:32:31;27.65;;;25.13;;
9716;SDS011;4897;43.570;27.832;2024-01-27T05:35:00;29.52;;;26.75;;
9716;SDS011;4897;43.570;27.832;2024-01-27T05:37:27;28.33;;;25.63;;
9716;SDS011;4897;43.570;27.832;2024-01-27T05:39:54;27.17;;;24.58;;
9716;SDS011;4897;43.570;27.832;2024-01-27T05:42:21;27.23;;;23.77;;
9716;SDS011;4897;43.570;27.832;2024-01-27T05:44:53;25.63;;;23.08;;
9716;SDS011;4897;43.570;27.832;2024-01-27T05:47:20;30.17;;;27.38;;
9716;SDS011;4897;43.570;27.832;2024-01-27T05:49:47;28.63;;;25.58;;
9716;SDS011;4897;43.570;27.832;2024-01-27T05:52:15;25.67;;;23.48;;
9716;SDS011;4897;43.570;27.832;2024-01-27T05:54:42;25.38;;;21.38;;
9716;SDS011;4897;43.570;27.832;2024-01-27T05:57:09;27.52;;;23.42;;
9716;SDS011;4897;43.570;27.832;2024-01-27T05:59:36;18.38;;;14.40;;
9716;SDS011;4897;43.570;27.832;2024-01-27T06:02:03;19.77;;;17.75;;
9716;SDS011;4897;43.570;27.832;2024-01-27T06:04:30;23.02;;;20.85;;
9716;SDS011;4897;43.570;27.832;2024-01-27T06:06:58;17.00;;;15.07;;
9716;SDS011;4897;43.570;27.832;2024-01-27T06:09:26;19.15;;;14.82;;
9716;SDS011;4897;43.570;27.832;2024-01-27T06:11:53;17.55;;;14.80;;
9716;SDS011;4897;43.570;27.832;2024-01-27T06:14:20;32.45;;;17.42;;
9716;SDS011;4897;43.570;27.832;2024-01-27T06:16:47;21.08;;;18.30;;
9716;SDS011;4897;43.570;27.832;2024-01-27T06:19:16;22.65;;;20.38;;
9716;SDS011;4897;43.570;27.832;2024-01-27T06:21:43;25.33;;;22.83;;
9716;SDS011;4897;43.570;27.832;2024-01-27T06:24:10;46.45;;;39.97;;
9716;SDS011;4897;43.570;27.832;2024-01-27T06:26:38;26.90;;;23.88;;
9716;SDS011;4897;43.570;27.832;2024-01-27T06:29:08;28.40;;;25.58;;
9716;SDS011;4897;43.570;27.832;2024-01-27T06:31:40;22.38;;;20.17;;
9716;SDS011;4897;43.570;27.832;2024-01-27T06:34:07;24.20;;;22.15;;
9716;SDS011;4897;43.570;27.832;2024-01-27T06:36:34;24.20;;;21.95;;
9716;SDS011;4897;43.570;27.832;2024-01-27T06:39:01;23.10;;;21.02;;
9716;SDS011;4897;43.570;27.832;2024-01-27T06:41:31;23.83;;;21.48;;
9716;SDS011;4897;43.570;27.832;2024-01-27T06:44:04;25.17;;;22.50;;
9716;SDS011;4897;43.570;27.832;2024-01-27T06:46:32;25.55;;;23.00;;
9716;SDS011;4897;43.570;27.832;2024-01-27T06:48:59;23.45;;;20.98;;
9716;SDS011;4897;43.570;27.832;2024-01-27T06:51:27;23.17;;;21.08;;
9716;SDS011;4897;43.570;27.832;2024-01-27T06:53:53;22.77;;;20.30;;
9716;SDS011;4897;43.570;27.832;2024-01-27T06:56:20;23.35;;;20.85;;
9716;SDS011;4897;43.570;27.832;2024-01-27T06:58:47;23.90;;;21.35;;
9716;SDS011;4897;43.570;27.832;2024-01-27T07:01:15;23.75;;;21.40;;
9716;SDS011;4897;43.570;27.832;2024-01-27T07:03:42;25.90;;;23.30;;
9716;SDS011;4897;43.570;27.832;2024-01-27T07:06:10;23.92;;;21.65;;
9716;SDS011;4897;43.570;27.832;2024-01-27T07:08:36;24.33;;;21.92;;
9716;SDS011;4897;43.570;27.832;2024-01-27T07:11:03;23.73;;;20.08;;
9716;SDS011;4897;43.570;27.832;2024-01-27T07:13:30;22.85;;;20.85;;
9716;SDS011;4897;43.570;27.832;2024-01-27T07:15:57;22.92;;;20.70;;
9716;SDS011;4897;43.570;27.832;2024-01-27T07:18:25;22.20;;;19.17;;
9716;SDS011;4897;43.570;27.832;2024-01-27T07:20:53;24.20;;;22.02;;
9716;SDS011;4897;43.570;27.832;2024-01-27T07:23:23;23.70;;;21.50;;
9716;SDS011;4897;43.570;27.832;2024-01-27T07:25:53;22.63;;;20.42;;
9716;SDS011;4897;43.570;27.832;2024-01-27T07:28:20;20.55;;;18.40;;
9716;SDS011;4897;43.570;27.832;2024-01-27T07:30:47;20.85;;;18.85;;
9716;SDS011;4897;43.570;27.832;2024-01-27T07:33:14;21.08;;;18.88;;
9716;SDS011;4897;43.570;27.832;2024-01-27T07:35:42;17.15;;;15.48;;
9716;SDS011;4897;43.570;27.832;2024-01-27T07:38:12;17.55;;;15.10;;
9716;SDS011;4897;43.570;27.832;2024-01-27T07:40:39;23.80;;;21.52;;
9716;SDS011;4897;43.570;27.832;2024-01-27T07:43:06;18.92;;;17.10;;
9716;SDS011;4897;43.570;27.832;2024-01-27T07:45:33;20.38;;;18.35;;
9716;SDS011;4897;43.570;27.832;2024-01-27T07:47:59;21.67;;;19.63;;
9716;SDS011;4897;43.570;27.832;2024-01-27T07:50:27;21.02;;;18.83;;
9716;SDS011;4897;43.570;27.832;2024-01-27T07:52:55;23.85;;;21.63;;
9716;SDS011;4897;43.570;27.832;2024-01-27T07:55:22;21.55;;;19.38;;
9716;SDS011;4897;43.570;27.832;2024-01-27T07:57:49;21.83;;;19.48;;
9716;SDS011;4897;43.570;27.832;2024-01-27T08:00:16;25.95;;;23.42;;
9716;SDS011;4897;43.570;27.832;2024-01-27T08:02:43;26.67;;;24.00;;
9716;SDS011;4897;43.570;27.832;2024-01-27T08:05:10;24.40;;;21.88;;
9716;SDS011;4897;43.570;27.832;2024-01-27T08:07:37;25.10;;;22.65;;
9716;SDS011;4897;43.570;27.832;2024-01-27T08:10:06;24.02;;;21.67;;
9716;SDS011;4897;43.570;27.832;2024-01-27T08:12:36;25.20;;;21.50;;
9716;SDS011;4897;43.570;27.832;2024-01-27T08:15:05;23.50;;;21.33;;
9716;SDS011;4897;43.570;27.832;2024-01-27T08:17:33;21.17;;;19.10;;
9716;SDS011;4897;43.570;27.832;2024-01-27T08:20:00;17.88;;;16.02;;
9716;SDS011;4897;43.570;27.832;2024-01-27T08:22:27;19.88;;;17.77;;
9716;SDS011;4897;43.570;27.832;2024-01-27T08:24:54;23.98;;;18.38;;
9716;SDS011;4897;43.570;27.832;2024-01-27T08:27:22;20.38;;;18.17;;
9716;SDS011;4897;43.570;27.832;2024-01-27T08:29:52;24.75;;;18.27;;
9716;SDS011;4897;43.570;27.832;2024-01-27T08:32:19;23.23;;;18.10;;
9716;SDS011;4897;43.570;27.832;2024-01-27T08:34:45;27.90;;;25.13;;
9716;SDS011;4897;43.570;27.832;2024-01-27T08:37:14;28.35;;;25.33;;
9716;SDS011;4897;43.570;27.832;2024-01-27T08:39:42;88.18;;;73.80;;
9716;SDS011;4897;43.570;27.832;2024-01-27T08:42:09;26.95;;;24.27;;
9716;SDS011;4897;43.570;27.832;2024-01-27T08:44:37;27.10;;;24.33;;
9716;SDS011;4897;43.570;27.832;2024-01-27T08:47:04;27.98;;;24.90;;
9716;SDS011;4897;43.570;27.832;2024-01-27T08:49:32;25.10;;;22.40;;
9716;SDS011;4897;43.570;27.832;2024-01-27T08:51:58;26.33;;;23.70;;
9716;SDS011;4897;43.570;27.832;2024-01-27T08:54:25;26.30;;;23.80;;
9716;SDS011;4897;43.570;27.832;2024-01-27T08:56:52;25.65;;;23.05;;
9716;SDS011;4897;43.570;27.832;2024-01-27T08:59:20;23.95;;;21.65;;
9716;SDS011;4897;43.570;27.832;2024-01-27T09:01:48;22.98;;;20.65;;
9716;SDS011;4897;43.570;27.832;2024-01-27T09:04:18;23.60;;;21.30;;
9716;SDS011;4897;43.570;27.832;2024-01-27T09:06:44;23.63;;;21.13;;
9716;SDS011;4897;43.570;27.832;2024-01-27T09:09:11;20.27;;;18.38;;
9716;SDS011;4897;43.570;27.832;2024-01-27T09:11:38;23.33;;;20.77;;
9716;SDS011;4897;43.570;27.832;2024-01-27T09:14:05;25.13;;;22.67;;
9716;SDS011;4897;43.570;27.832;2024-01-27T09:16:34;23.15;;;20.95;;
9716;SDS011;4897;43.570;27.832;2024-01-27T09:19:02;24.58;;;22.25;;
9716;SDS011;4897;43.570;27.832;2024-01-27T09:21:30;27.80;;;25.08;;
9716;SDS011;4897;43.570;27.832;2024-01-27T09:23:57;22.25;;;20.13;;
9716;SDS011;4897;43.570;27.832;2024-01-27T09:26:26;23.63;;;21.20;;
9716;SDS011;4897;43.570;27.832;2024-01-27T09:28:53;22.40;;;20.20;;
9716;SDS011;4897;43.570;27.832;2024-01-27T09:31:20;22.60;;;20.27;;
9716;SDS011;4897;43.570;27.832;2024-01-27T09:33:48;24.15;;;20.73;;
9716;SDS011;4897;43.570;27.832;2024-01-27T09:36:18;23.55;;;20.60;;
9716;SDS011;4897;43.570;27.832;2024-01-27T09:38:45;24.13;;;21.75;;
9716;SDS011;4897;43.570;27.832;2024-01-27T09:41:13;26.35;;;23.77;;
9716;SDS011;4897;43.570;27.832;2024-01-27T09:43:42;28.65;;;25.77;;
9716;SDS011;4897;43.570;27.832;2024-01-27T09:46:10;27.00;;;22.52;;
9716;SDS011;4897;43.570;27.832;2024-01-27T09:48:37;24.98;;;22.33;;
9716;SDS011;4897;43.570;27.832;2024-01-27T09:51:05;23.10;;;20.77;;
9716;SDS011;4897;43.570;27.832;2024-01-27T09:53:35;21.83;;;19.67;;
9716;SDS011;4897;43.570;27.832;2024-01-27T09:56:04;21.33;;;19.20;;
9716;SDS011;4897;43.570;27.832;2024-01-27T09:58:32;23.70;;;21.23;;
9716;SDS011;4897;43.570;27.832;2024-01-27T10:01:00;30.30;;;24.30;;
9716;SDS011;4897;43.570;27.832;2024-01-27T10:03:28;28.50;;;23.85;;
9716;SDS011;4897;43.570;27.832;2024-01-27T10:05:55;45.00;;;30.67;;
9716;SDS011;4897;43.570;27.832;2024-01-27T10:08:23;26.67;;;23.77;;
9716;SDS011;4897;43.570;27.832;2024-01-27T10:10:53;27.85;;;21.60;;
9716;SDS011;4897;43.570;27.832;2024-01-27T10:13:22;23.17;;;20.17;;
9716;SDS011;4897;43.570;27.832;2024-01-27T10:16:00;24.65;;;20.83;;
9716;SDS011;4897;43.570;27.832;2024-01-27T10:18:28;25.83;;;22.17;;
9716;SDS011;4897;43.570;27.832;2024-01-27T10:20:55;23.63;;;21.23;;
9716;SDS011;4897;43.570;27.832;2024-01-27T10:23:22;26.25;;;23.33;;
9716;SDS011;4897;43.570;27.832;2024-01-27T10:25:49;29.35;;;23.65;;
9716;SDS011;4897;43.570;27.832;2024-01-27T10:28:18;25.02;;;22.60;;
9716;SDS011;4897;43.570;27.832;2024-01-27T10:30:45;23.25;;;21.05;;
9716;SDS011;4897;43.570;27.832;2024-01-27T10:33:13;25.90;;;23.45;;
9716;SDS011;4897;43.570;27.832;2024-01-27T10:35:40;24.95;;;22.25;;
9716;SDS011;4897;43.570;27.832;2024-01-27T10:38:08;24.45;;;22.10;;
9716;SDS011;4897;43.570;27.832;2024-01-27T10:40:36;36.85;;;29.58;;
9716;SDS011;4897;43.570;27.832;2024-01-27T10:43:03;24.17;;;21.73;;
9716;SDS011;4897;43.570;27.832;2024-01-27T10:45:35;22.67;;;20.38;;
9716;SDS011;4897;43.570;27.832;2024-01-27T10:48:04;23.58;;;21.05;;
9716;SDS011;4897;43.570;27.832;2024-01-27T10:50:35;22.15;;;19.95;;
9716;SDS011;4897;43.570;27.832;2024-01-27T10:53:03;23.45;;;21.00;;
9716;SDS011;4897;43.570;27.832;2024-01-27T10:55:32;23.05;;;20.73;;
9716;SDS011;4897;43.570;27.832;2024-01-27T10:58:00;24.48;;;22.05;;
9716;SDS011;4897;43.570;27.832;2024-01-27T11:00:28;22.08;;;19.70;;
9716;SDS011;4897;43.570;27.832;2024-01-27T11:02:59;22.77;;;20.48;;
9716;SDS011;4897;43.570;27.832;2024-01-27T11:05:30;21.70;;;19.42;;
9716;SDS011;4897;43.570;27.832;2024-01-27T11:07:58;19.08;;;17.25;;
9716;SDS011;4897;43.570;27.832;2024-01-27T11:10:25;23.20;;;19.70;;
9716;SDS011;4897;43.570;27.832;2024-01-27T11:13:00;21.17;;;18.88;;
9716;SDS011;4897;43.570;27.832;2024-01-27T11:15:29;22.92;;;20.80;;
9716;SDS011;4897;43.570;27.832;2024-01-27T11:18:00;21.50;;;19.52;;
9716;SDS011;4897;43.570;27.832;2024-01-27T11:20:30;20.98;;;18.83;;
9716;SDS011;4897;43.570;27.832;2024-01-27T11:23:08;21.20;;;19.08;;
9716;SDS011;4897;43.570;27.832;2024-01-27T11:25:35;23.80;;;21.67;;
9716;SDS011;4897;43.570;27.832;2024-01-27T11:28:10;24.45;;;21.88;;
9716;SDS011;4897;43.570;27.832;2024-01-27T11:30:38;23.67;;;21.38;;
9716;SDS011;4897;43.570;27.832;2024-01-27T11:33:06;23.65;;;21.25;;
9716;SDS011;4897;43.570;27.832;2024-01-27T11:35:33;22.50;;;20.15;;
9716;SDS011;4897;43.570;27.832;2024-01-27T11:38:04;22.15;;;19.85;;
9716;SDS011;4897;43.570;27.832;2024-01-27T11:40:44;23.63;;;21.25;;
9716;SDS011;4897;43.570;27.832;2024-01-27T11:43:12;24.00;;;21.55;;
9716;SDS011;4897;43.570;27.832;2024-01-27T11:45:39;24.08;;;21.45;;
9716;SDS011;4897;43.570;27.832;2024-01-27T11:48:11;25.05;;;22.67;;
9716;SDS011;4897;43.570;27.832;2024-01-27T11:50:40;22.35;;;19.90;;
9716;SDS011;4897;43.570;27.832;2024-01-27T11:53:07;21.88;;;19.85;;
9716;SDS011;4897;43.570;27.832;2024-01-27T11:55:34;24.38;;;18.77;;
9716;SDS011;4897;43.570;27.832;2024-01-27T11:58:01;20.48;;;18.60;;
9716;SDS011;4897;43.570;27.832;2024-01-27T12:00:28;22.13;;;19.60;;
9716;SDS011;4897;43.570;27.832;2024-01-27T12:02:55;23.15;;;18.67;;
9716;SDS011;4897;43.570;27.832;2024-01-27T12:05:26;23.20;;;20.63;;
9716;SDS011;4897;43.570;27.832;2024-01-27T12:07:53;26.48;;;23.77;;
9716;SDS011;4897;43.570;27.832;2024-01-27T12:10:20;24.35;;;21.80;;
9716;SDS011;4897;43.570;27.832;2024-01-27T12:12:47;26.02;;;22.63;;
9716;SDS011;4897;43.570;27.832;2024-01-27T12:15:14;24.40;;;21.75;;
9716;SDS011;4897;43.570;27.832;2024-01-27T12:17:49;23.42;;;21.00;;
9716;SDS011;4897;43.570;27.832;2024-01-27T12:20:16;21.83;;;19.48;;
9716;SDS011;4897;43.570;27.832;2024-01-27T12:22:45;23.05;;;20.63;;
9716;SDS011;4897;43.570;27.832;2024-01-27T12:25:12;24.38;;;20.42;;
9716;SDS011;4897;43.570;27.832;2024-01-27T12:27:39;22.63;;;20.38;;
9716;SDS011;4897;43.570;27.832;2024-01-27T12:30:07;24.05;;;21.60;;
9716;SDS011;4897;43.570;27.832;2024-01-27T12:32:35;24.17;;;21.88;;
9716;SDS011;4897;43.570;27.832;2024-01-27T12:35:04;22.95;;;20.58;;
9716;SDS011;4897;43.570;27.832;2024-01-27T12:37:31;22.95;;;19.08;;
9716;SDS011;4897;43.570;27.832;2024-01-27T12:39:59;19.35;;;17.42;;
9716;SDS011;4897;43.570;27.832;2024-01-27T12:42:29;21.83;;;19.77;;
9716;SDS011;4897;43.570;27.832;2024-01-27T12:44:56;18.08;;;16.27;;
9716;SDS011;4897;43.570;27.832;2024-01-27T12:47:23;18.50;;;16.30;;
9716;SDS011;4897;43.570;27.832;2024-01-27T12:49:50;20.35;;;17.80;;
9716;SDS011;4897;43.570;27.832;2024-01-27T12:52:17;22.83;;;20.55;;
9716;SDS011;4897;43.570;27.832;2024-01-27T12:54:44;25.17;;;22.73;;
9716;SDS011;4897;43.570;27.832;2024-01-27T12:57:12;25.35;;;22.80;;
9716;SDS011;4897;43.570;27.832;2024-01-27T12:59:39;23.55;;;21.38;;
9716;SDS011;4897;43.570;27.832;2024-01-27T13:02:06;24.13;;;21.50;;
9716;SDS011;4897;43.570;27.832;2024-01-27T13:04:33;25.70;;;23.00;;
9716;SDS011;4897;43.570;27.832;2024-01-27T13:07:00;26.08;;;23.38;;
9716;SDS011;4897;43.570;27.832;2024-01-27T13:09:27;22.63;;;20.52;;
9716;SDS011;4897;43.570;27.832;2024-01-27T13:11:54;23.00;;;20.55;;
9716;SDS011;4897;43.570;27.832;2024-01-27T13:14:22;27.38;;;22.98;;
9716;SDS011;4897;43.570;27.832;2024-01-27T13:16:49;25.13;;;22.52;;
9716;SDS011;4897;43.570;27.832;2024-01-27T13:19:18;25.15;;;22.60;;
9716;SDS011;4897;43.570;27.832;2024-01-27T13:21:45;25.60;;;23.10;;
9716;SDS011;4897;43.570;27.832;2024-01-27T13:24:12;23.10;;;20.85;;
9716;SDS011;4897;43.570;27.832;2024-01-27T13:26:39;23.30;;;20.67;;
9716;SDS011;4897;43.570;27.832;2024-01-27T13:29:06;23.98;;;21.75;;
9716;SDS011;4897;43.570;27.832;2024-01-27T13:31:34;23.08;;;20.17;;
9716;SDS011;4897;43.570;27.832;2024-01-27T13:34:01;20.48;;;18.48;;
9716;SDS011;4897;43.570;27.832;2024-01-27T13:36:29;22.10;;;19.98;;
9716;SDS011;4897;43.570;27.832;2024-01-27T13:38:56;24.17;;;22.02;;
9716;SDS011;4897;43.570;27.832;2024-01-27T13:41:25;25.17;;;20.95;;
9716;SDS011;4897;43.570;27.832;2024-01-27T13:43:52;22.88;;;20.67;;
9716;SDS011;4897;43.570;27.832;2024-01-27T13:46:19;21.80;;;19.80;;
9716;SDS011;4897;43.570;27.832;2024-01-27T13:48:48;23.00;;;20.52;;
9716;SDS011;4897;43.570;27.832;2024-01-27T13:51:15;21.70;;;19.77;;
9716;SDS011;4897;43.570;27.832;2024-01-27T13:53:42;22.42;;;20.10;;
9716;SDS011;4897;43.570;27.832;2024-01-27T13:56:11;22.73;;;20.55;;
9716;SDS011;4897;43.570;27.832;2024-01-27T13:58:38;21.83;;;19.48;;
9716;SDS011;4897;43.570;27.832;2024-01-27T14:01:05;22.58;;;20.55;;
9716;SDS011;4897;43.570;27.832;2024-01-27T14:03:33;23.48;;;21.27;;
9716;SDS011;4897;43.570;27.832;2024-01-27T14:06:01;23.85;;;21.55;;
9716;SDS011;4897;43.570;27.832;2024-01-27T14:08:29;24.67;;;21.88;;
9716;SDS011;4897;43.570;27.832;2024-01-27T14:10:56;24.55;;;22.45;;
9716;SDS011;4897;43.570;27.832;2024-01-27T14:13:23;22.95;;;20.90;;
9716;SDS011;4897;43.570;27.832;2024-01-27T14:15:50;21.92;;;20.10;;
9716;SDS011;4897;43.570;27.832;2024-01-27T14:18:17;22.83;;;20.73;;
9716;SDS011;4897;43.570;27.832;2024-01-27T14:20:46;22.48;;;20.27;;
9716;SDS011;4897;43.570;27.832;2024-01-27T14:23:15;24.73;;;22.00;;
9716;SDS011;4897;43.570;27.832;2024-01-27T14:25:42;22.60;;;20.48;;
9716;SDS011;4897;43.570;27.832;2024-01-27T14:28:12;22.80;;;20.70;;
9716;SDS011;4897;43.570;27.832;2024-01-27T14:30:39;22.88;;;20.67;;
9716;SDS011;4897;43.570;27.832;2024-01-27T14:33:06;25.83;;;23.08;;
9716;SDS011;4897;43.570;27.832;2024-01-27T14:35:33;24.10;;;21.80;;